sensor_id;sensor_type;location;lat;lon;timestamp;P1;durP1;ratioP1;P2;durP2;ratioP2
18732;SDS011;9495;51.210;2.934;2023-02-22T00:01:15;416.20;;;60.97;;
18732;SDS011;9495;51.210;2.934;2023-02-22T00:04:01;309.37;;;56.57;;
18732;SDS011;9495;51.210;2.934;2023-02-22T00:06:31;419.47;;;59.63;;
18732;SDS011;9495;51.210;2.934;2023-02-22T00:09:00;422.93;;;56.63;;
18732;SDS011;9495;51.210;2.934;2023-02-22T00:11:30;430.50;;;59.63;;
18732;SDS011;9495;51.210;2.934;2023-02-22T00:14:01;447.10;;;62.53;;
18732;SDS011;9495;51.210;2.934;2023-02-22T00:16:29;381.13;;;56.60;;
18732;SDS011;9495;51.210;2.934;2023-02-22T00:18:58;334.20;;;55.00;;
18732;SDS011;9495;51.210;2.934;2023-02-22T00:21:26;438.90;;;59.50;;
18732;SDS011;9495;51.210;2.934;2023-02-22T00:23:56;279.10;;;49.37;;
18732;SDS011;9495;51.210;2.934;2023-02-22T00:26:24;395.60;;;56.60;;
18732;SDS011;9495;51.210;2.934;2023-02-22T00:28:54;481.23;;;57.70;;
18732;SDS011;9495;51.210;2.934;2023-02-22T00:31:23;340.10;;;55.87;;
18732;SDS011;9495;51.210;2.934;2023-02-22T00:33:51;289.47;;;53.40;;
18732;SDS011;9495;51.210;2.934;2023-02-22T00:36:20;425.27;;;55.90;;
18732;SDS011;9495;51.210;2.934;2023-02-22T00:38:48;333.10;;;52.63;;
18732;SDS011;9495;51.210;2.934;2023-02-22T00:41:17;374.30;;;57.03;;
18732;SDS011;9495;51.210;2.934;2023-02-22T00:43:45;408.47;;;60.70;;
18732;SDS011;9495;51.210;2.934;2023-02-22T00:46:16;307.07;;;54.30;;
18732;SDS011;9495;51.210;2.934;2023-02-22T00:48:44;359.83;;;56.17;;
18732;SDS011;9495;51.210;2.934;2023-02-22T00:51:13;423.33;;;60.50;;
18732;SDS011;9495;51.210;2.934;2023-02-22T00:53:42;325.57;;;56.20;;
18732;SDS011;9495;51.210;2.934;2023-02-22T00:56:11;448.17;;;60.50;;
18732;SDS011;9495;51.210;2.934;2023-02-22T00:58:39;414.43;;;61.60;;
18732;SDS011;9495;51.210;2.934;2023-02-22T01:01:08;404.30;;;60.50;;
18732;SDS011;9495;51.210;2.934;2023-02-22T01:03:38;311.27;;;56.10;;
18732;SDS011;9495;51.210;2.934;2023-02-22T01:06:07;410.27;;;58.53;;
18732;SDS011;9495;51.210;2.934;2023-02-22T01:08:35;415.30;;;60.33;;
18732;SDS011;9495;51.210;2.934;2023-02-22T01:11:04;321.77;;;56.90;;
18732;SDS011;9495;51.210;2.934;2023-02-22T01:13:32;337.10;;;57.10;;
18732;SDS011;9495;51.210;2.934;2023-02-22T01:16:01;404.77;;;60.97;;
18732;SDS011;9495;51.210;2.934;2023-02-22T01:18:29;339.57;;;57.93;;
18732;SDS011;9495;51.210;2.934;2023-02-22T01:20:59;375.33;;;59.73;;
18732;SDS011;9495;51.210;2.934;2023-02-22T01:23:28;325.67;;;55.97;;
18732;SDS011;9495;51.210;2.934;2023-02-22T01:25:56;365.13;;;60.63;;
18732;SDS011;9495;51.210;2.934;2023-02-22T01:28:25;403.30;;;60.63;;
18732;SDS011;9495;51.210;2.934;2023-02-22T01:30:54;344.90;;;57.27;;
18732;SDS011;9495;51.210;2.934;2023-02-22T01:33:24;529.17;;;68.87;;
18732;SDS011;9495;51.210;2.934;2023-02-22T01:35:52;389.23;;;62.27;;
18732;SDS011;9495;51.210;2.934;2023-02-22T01:38:22;354.60;;;60.20;;
18732;SDS011;9495;51.210;2.934;2023-02-22T01:40:50;438.57;;;65.87;;
18732;SDS011;9495;51.210;2.934;2023-02-22T01:43:20;376.13;;;62.23;;
18732;SDS011;9495;51.210;2.934;2023-02-22T01:45:52;389.60;;;63.00;;
18732;SDS011;9495;51.210;2.934;2023-02-22T01:48:25;550.10;;;73.83;;
18732;SDS011;9495;51.210;2.934;2023-02-22T01:51:04;411.00;;;67.30;;
18732;SDS011;9495;51.210;2.934;2023-02-22T01:53:38;473.83;;;72.07;;
18732;SDS011;9495;51.210;2.934;2023-02-22T01:56:12;395.03;;;61.90;;
18732;SDS011;9495;51.210;2.934;2023-02-22T01:58:42;417.80;;;67.33;;
18732;SDS011;9495;51.210;2.934;2023-02-22T02:01:13;537.93;;;73.37;;
18732;SDS011;9495;51.210;2.934;2023-02-22T02:03:43;441.30;;;68.23;;
18732;SDS011;9495;51.210;2.934;2023-02-22T02:06:14;525.87;;;72.47;;
18732;SDS011;9495;51.210;2.934;2023-02-22T02:08:48;381.47;;;62.93;;
18732;SDS011;9495;51.210;2.934;2023-02-22T02:11:24;425.03;;;68.87;;
18732;SDS011;9495;51.210;2.934;2023-02-22T02:13:54;500.40;;;73.33;;
18732;SDS011;9495;51.210;2.934;2023-02-22T02:16:24;379.93;;;68.73;;
18732;SDS011;9495;51.210;2.934;2023-02-22T02:18:57;438.83;;;72.10;;
18732;SDS011;9495;51.210;2.934;2023-02-22T02:21:39;357.53;;;66.20;;
18732;SDS011;9495;51.210;2.934;2023-02-22T02:27:18;459.83;;;71.50;;
18732;SDS011;9495;51.210;2.934;2023-02-22T02:29:57;380.10;;;66.33;;
18732;SDS011;9495;51.210;2.934;2023-02-22T02:33:05;398.73;;;68.47;;
18732;SDS011;9495;51.210;2.934;2023-02-22T02:35:43;352.83;;;67.47;;
18732;SDS011;9495;51.210;2.934;2023-02-22T02:38:20;314.60;;;65.40;;
18732;SDS011;9495;51.210;2.934;2023-02-22T02:40:57;362.50;;;70.73;;
18732;SDS011;9495;51.210;2.934;2023-02-22T02:43:35;306.40;;;63.17;;
18732;SDS011;9495;51.210;2.934;2023-02-22T02:46:11;477.07;;;73.10;;
18732;SDS011;9495;51.210;2.934;2023-02-22T02:48:48;436.23;;;71.87;;
18732;SDS011;9495;51.210;2.934;2023-02-22T02:51:22;274.13;;;64.70;;
18732;SDS011;9495;51.210;2.934;2023-02-22T02:53:54;310.43;;;67.60;;
18732;SDS011;9495;51.210;2.934;2023-02-22T02:56:23;374.87;;;72.77;;
18732;SDS011;9495;51.210;2.934;2023-02-22T02:58:52;239.77;;;66.33;;
18732;SDS011;9495;51.210;2.934;2023-02-22T03:01:25;273.83;;;69.07;;
18732;SDS011;9495;51.210;2.934;2023-02-22T03:04:22;267.93;;;68.60;;
18732;SDS011;9495;51.210;2.934;2023-02-22T03:07:12;278.97;;;70.87;;
18732;SDS011;9495;51.210;2.934;2023-02-22T03:09:53;293.20;;;70.67;;
18732;SDS011;9495;51.210;2.934;2023-02-22T03:12:35;262.97;;;70.70;;
18732;SDS011;9495;51.210;2.934;2023-02-22T03:15:11;249.23;;;69.50;;
18732;SDS011;9495;51.210;2.934;2023-02-22T03:17:50;228.33;;;67.77;;
18732;SDS011;9495;51.210;2.934;2023-02-22T03:20:26;206.23;;;65.07;;
18732;SDS011;9495;51.210;2.934;2023-02-22T03:22:59;206.33;;;67.17;;
18732;SDS011;9495;51.210;2.934;2023-02-22T03:25:32;195.07;;;63.37;;
18732;SDS011;9495;51.210;2.934;2023-02-22T03:28:05;192.30;;;62.67;;
18732;SDS011;9495;51.210;2.934;2023-02-22T03:30:37;191.03;;;63.13;;
18732;SDS011;9495;51.210;2.934;2023-02-22T03:33:10;180.87;;;59.43;;
18732;SDS011;9495;51.210;2.934;2023-02-22T03:35:44;175.93;;;60.93;;
18732;SDS011;9495;51.210;2.934;2023-02-22T03:38:17;171.50;;;61.07;;
18732;SDS011;9495;51.210;2.934;2023-02-22T03:40:47;167.57;;;59.47;;
18732;SDS011;9495;51.210;2.934;2023-02-22T03:43:20;164.07;;;60.37;;
18732;SDS011;9495;51.210;2.934;2023-02-22T03:45:52;173.47;;;62.53;;
18732;SDS011;9495;51.210;2.934;2023-02-22T03:48:22;171.10;;;59.70;;
18732;SDS011;9495;51.210;2.934;2023-02-22T03:50:58;175.97;;;61.57;;
18732;SDS011;9495;51.210;2.934;2023-02-22T03:53:29;167.57;;;60.90;;
18732;SDS011;9495;51.210;2.934;2023-02-22T03:56:02;166.63;;;61.23;;
18732;SDS011;9495;51.210;2.934;2023-02-22T03:58:34;164.27;;;61.33;;
18732;SDS011;9495;51.210;2.934;2023-02-22T04:01:04;164.37;;;60.10;;
18732;SDS011;9495;51.210;2.934;2023-02-22T04:03:33;152.33;;;59.47;;
18732;SDS011;9495;51.210;2.934;2023-02-22T04:06:03;158.40;;;60.77;;
18732;SDS011;9495;51.210;2.934;2023-02-22T04:08:31;160.13;;;60.13;;
18732;SDS011;9495;51.210;2.934;2023-02-22T04:11:00;151.37;;;57.23;;
18732;SDS011;9495;51.210;2.934;2023-02-22T04:13:29;142.33;;;57.30;;
18732;SDS011;9495;51.210;2.934;2023-02-22T04:15:57;148.27;;;58.50;;
18732;SDS011;9495;51.210;2.934;2023-02-22T04:18:26;146.37;;;56.07;;
18732;SDS011;9495;51.210;2.934;2023-02-22T04:20:54;146.20;;;56.87;;
18732;SDS011;9495;51.210;2.934;2023-02-22T04:23:24;146.73;;;57.23;;
18732;SDS011;9495;51.210;2.934;2023-02-22T04:25:53;143.70;;;58.17;;
18732;SDS011;9495;51.210;2.934;2023-02-22T04:28:21;136.10;;;56.40;;
18732;SDS011;9495;51.210;2.934;2023-02-22T04:30:50;145.13;;;56.77;;
18732;SDS011;9495;51.210;2.934;2023-02-22T04:33:18;138.83;;;57.80;;
18732;SDS011;9495;51.210;2.934;2023-02-22T04:35:47;139.43;;;56.53;;
18732;SDS011;9495;51.210;2.934;2023-02-22T04:38:17;141.23;;;56.53;;
18732;SDS011;9495;51.210;2.934;2023-02-22T04:40:47;135.00;;;55.20;;
18732;SDS011;9495;51.210;2.934;2023-02-22T04:43:15;137.57;;;54.13;;
18732;SDS011;9495;51.210;2.934;2023-02-22T04:45:44;138.07;;;57.57;;
18732;SDS011;9495;51.210;2.934;2023-02-22T04:48:12;134.93;;;55.90;;
18732;SDS011;9495;51.210;2.934;2023-02-22T04:50:41;129.27;;;55.17;;
18732;SDS011;9495;51.210;2.934;2023-02-22T04:53:09;136.13;;;55.70;;
18732;SDS011;9495;51.210;2.934;2023-02-22T04:55:38;132.67;;;55.50;;
18732;SDS011;9495;51.210;2.934;2023-02-22T04:58:08;131.10;;;55.33;;
18732;SDS011;9495;51.210;2.934;2023-02-22T05:00:36;136.13;;;55.40;;
18732;SDS011;9495;51.210;2.934;2023-02-22T05:03:05;123.90;;;55.17;;
18732;SDS011;9495;51.210;2.934;2023-02-22T05:05:34;131.23;;;55.17;;
18732;SDS011;9495;51.210;2.934;2023-02-22T05:08:02;128.77;;;54.07;;
18732;SDS011;9495;51.210;2.934;2023-02-22T05:10:31;124.13;;;52.63;;
18732;SDS011;9495;51.210;2.934;2023-02-22T05:12:59;127.03;;;53.60;;
18732;SDS011;9495;51.210;2.934;2023-02-22T05:15:30;126.27;;;55.23;;
18732;SDS011;9495;51.210;2.934;2023-02-22T05:17:59;125.13;;;55.03;;
18732;SDS011;9495;51.210;2.934;2023-02-22T05:20:28;131.10;;;55.80;;
18732;SDS011;9495;51.210;2.934;2023-02-22T05:22:58;127.13;;;53.63;;
18732;SDS011;9495;51.210;2.934;2023-02-22T05:25:27;118.23;;;53.30;;
18732;SDS011;9495;51.210;2.934;2023-02-22T05:27:56;131.60;;;56.20;;
18732;SDS011;9495;51.210;2.934;2023-02-22T05:30:26;112.77;;;54.17;;
18732;SDS011;9495;51.210;2.934;2023-02-22T05:32:58;115.57;;;53.53;;
18732;SDS011;9495;51.210;2.934;2023-02-22T05:35:27;115.70;;;53.73;;
18732;SDS011;9495;51.210;2.934;2023-02-22T05:37:56;110.53;;;52.63;;
18732;SDS011;9495;51.210;2.934;2023-02-22T05:40:27;123.00;;;54.27;;
18732;SDS011;9495;51.210;2.934;2023-02-22T05:42:56;113.07;;;51.73;;
18732;SDS011;9495;51.210;2.934;2023-02-22T05:45:25;110.57;;;50.73;;
18732;SDS011;9495;51.210;2.934;2023-02-22T05:47:55;106.77;;;48.70;;
18732;SDS011;9495;51.210;2.934;2023-02-22T05:50:25;105.67;;;46.97;;
18732;SDS011;9495;51.210;2.934;2023-02-22T05:52:53;115.27;;;51.73;;
18732;SDS011;9495;51.210;2.934;2023-02-22T05:55:22;101.80;;;51.43;;
18732;SDS011;9495;51.210;2.934;2023-02-22T05:57:51;107.37;;;51.10;;
18732;SDS011;9495;51.210;2.934;2023-02-22T06:00:20;102.77;;;50.80;;
18732;SDS011;9495;51.210;2.934;2023-02-22T06:02:54;103.40;;;48.97;;
18732;SDS011;9495;51.210;2.934;2023-02-22T06:05:22;110.47;;;50.53;;
18732;SDS011;9495;51.210;2.934;2023-02-22T06:07:53;105.87;;;49.23;;
18732;SDS011;9495;51.210;2.934;2023-02-22T06:10:21;108.90;;;52.10;;
18732;SDS011;9495;51.210;2.934;2023-02-22T06:12:50;106.20;;;50.97;;
18732;SDS011;9495;51.210;2.934;2023-02-22T06:15:20;101.87;;;47.97;;
18732;SDS011;9495;51.210;2.934;2023-02-22T06:17:50;103.10;;;48.93;;
18732;SDS011;9495;51.210;2.934;2023-02-22T06:20:19;103.37;;;46.10;;
18732;SDS011;9495;51.210;2.934;2023-02-22T06:22:52;102.53;;;49.23;;
18732;SDS011;9495;51.210;2.934;2023-02-22T06:25:21;95.63;;;47.33;;
18732;SDS011;9495;51.210;2.934;2023-02-22T06:27:51;100.57;;;48.70;;
18732;SDS011;9495;51.210;2.934;2023-02-22T06:30:20;93.87;;;47.13;;
18732;SDS011;9495;51.210;2.934;2023-02-22T06:32:50;94.50;;;47.13;;
18732;SDS011;9495;51.210;2.934;2023-02-22T06:35:19;86.70;;;45.83;;
18732;SDS011;9495;51.210;2.934;2023-02-22T06:37:48;88.03;;;45.50;;
18732;SDS011;9495;51.210;2.934;2023-02-22T06:40:18;91.70;;;46.27;;
18732;SDS011;9495;51.210;2.934;2023-02-22T06:42:47;91.70;;;45.90;;
18732;SDS011;9495;51.210;2.934;2023-02-22T06:45:16;88.93;;;47.30;;
18732;SDS011;9495;51.210;2.934;2023-02-22T06:47:44;95.10;;;47.67;;
18732;SDS011;9495;51.210;2.934;2023-02-22T06:50:19;85.70;;;46.37;;
18732;SDS011;9495;51.210;2.934;2023-02-22T06:52:49;85.70;;;46.20;;
18732;SDS011;9495;51.210;2.934;2023-02-22T06:55:20;88.40;;;45.97;;
18732;SDS011;9495;51.210;2.934;2023-02-22T06:57:50;81.67;;;45.83;;
18732;SDS011;9495;51.210;2.934;2023-02-22T07:00:19;89.30;;;47.50;;
18732;SDS011;9495;51.210;2.934;2023-02-22T07:02:50;87.00;;;46.50;;
18732;SDS011;9495;51.210;2.934;2023-02-22T07:05:19;83.83;;;46.50;;
18732;SDS011;9495;51.210;2.934;2023-02-22T07:07:48;94.60;;;48.70;;
18732;SDS011;9495;51.210;2.934;2023-02-22T07:10:20;89.53;;;48.57;;
18732;SDS011;9495;51.210;2.934;2023-02-22T07:12:51;93.40;;;49.07;;
18732;SDS011;9495;51.210;2.934;2023-02-22T07:15:19;85.70;;;48.40;;
18732;SDS011;9495;51.210;2.934;2023-02-22T07:17:49;89.90;;;50.30;;
18732;SDS011;9495;51.210;2.934;2023-02-22T07:20:18;95.90;;;49.20;;
18732;SDS011;9495;51.210;2.934;2023-02-22T07:22:48;82.87;;;48.47;;
18732;SDS011;9495;51.210;2.934;2023-02-22T07:25:16;79.67;;;46.73;;
18732;SDS011;9495;51.210;2.934;2023-02-22T07:27:46;84.13;;;49.53;;
18732;SDS011;9495;51.210;2.934;2023-02-22T07:30:15;92.63;;;48.73;;
18732;SDS011;9495;51.210;2.934;2023-02-22T07:32:46;87.07;;;47.23;;
18732;SDS011;9495;51.210;2.934;2023-02-22T07:35:15;88.50;;;51.63;;
18732;SDS011;9495;51.210;2.934;2023-02-22T07:37:44;79.80;;;48.10;;
18732;SDS011;9495;51.210;2.934;2023-02-22T07:40:13;84.67;;;49.83;;
18732;SDS011;9495;51.210;2.934;2023-02-22T07:42:51;86.43;;;49.67;;
18732;SDS011;9495;51.210;2.934;2023-02-22T07:45:21;82.80;;;48.50;;
18732;SDS011;9495;51.210;2.934;2023-02-22T07:47:50;87.23;;;50.87;;
18732;SDS011;9495;51.210;2.934;2023-02-22T07:50:19;88.57;;;49.50;;
18732;SDS011;9495;51.210;2.934;2023-02-22T07:52:50;91.60;;;51.43;;
18732;SDS011;9495;51.210;2.934;2023-02-22T07:55:20;88.43;;;51.50;;
18732;SDS011;9495;51.210;2.934;2023-02-22T07:57:52;89.93;;;50.40;;
18732;SDS011;9495;51.210;2.934;2023-02-22T08:00:23;88.83;;;51.17;;
18732;SDS011;9495;51.210;2.934;2023-02-22T08:02:52;93.13;;;52.03;;
18732;SDS011;9495;51.210;2.934;2023-02-22T08:05:22;89.43;;;51.63;;
18732;SDS011;9495;51.210;2.934;2023-02-22T08:07:52;86.13;;;49.07;;
18732;SDS011;9495;51.210;2.934;2023-02-22T08:10:21;82.30;;;50.20;;
18732;SDS011;9495;51.210;2.934;2023-02-22T08:12:54;84.40;;;49.77;;
18732;SDS011;9495;51.210;2.934;2023-02-22T08:15:24;86.83;;;50.80;;
18732;SDS011;9495;51.210;2.934;2023-02-22T08:17:54;91.17;;;51.50;;
18732;SDS011;9495;51.210;2.934;2023-02-22T08:20:23;81.60;;;49.87;;
18732;SDS011;9495;51.210;2.934;2023-02-22T08:22:52;85.27;;;51.97;;
18732;SDS011;9495;51.210;2.934;2023-02-22T08:25:22;87.83;;;52.67;;
18732;SDS011;9495;51.210;2.934;2023-02-22T08:27:55;87.97;;;51.10;;
18732;SDS011;9495;51.210;2.934;2023-02-22T08:30:27;86.77;;;52.97;;
18732;SDS011;9495;51.210;2.934;2023-02-22T08:32:56;87.80;;;52.60;;
18732;SDS011;9495;51.210;2.934;2023-02-22T08:35:27;88.90;;;52.63;;
18732;SDS011;9495;51.210;2.934;2023-02-22T08:37:57;87.90;;;52.00;;
18732;SDS011;9495;51.210;2.934;2023-02-22T08:40:27;89.20;;;53.70;;
18732;SDS011;9495;51.210;2.934;2023-02-22T08:42:58;92.93;;;54.53;;
18732;SDS011;9495;51.210;2.934;2023-02-22T08:45:28;93.67;;;55.27;;
18732;SDS011;9495;51.210;2.934;2023-02-22T08:47:57;90.73;;;55.13;;
18732;SDS011;9495;51.210;2.934;2023-02-22T08:50:26;93.47;;;55.50;;
18732;SDS011;9495;51.210;2.934;2023-02-22T08:52:56;97.43;;;57.30;;
18732;SDS011;9495;51.210;2.934;2023-02-22T08:55:26;100.77;;;56.53;;
18732;SDS011;9495;51.210;2.934;2023-02-22T08:57:59;93.43;;;55.10;;
18732;SDS011;9495;51.210;2.934;2023-02-22T09:00:29;87.20;;;53.27;;
18732;SDS011;9495;51.210;2.934;2023-02-22T09:02:59;92.77;;;56.67;;
18732;SDS011;9495;51.210;2.934;2023-02-22T09:05:29;95.10;;;56.60;;
18732;SDS011;9495;51.210;2.934;2023-02-22T09:07:58;95.77;;;54.83;;
18732;SDS011;9495;51.210;2.934;2023-02-22T09:10:28;89.83;;;56.77;;
18732;SDS011;9495;51.210;2.934;2023-02-22T09:12:59;92.83;;;55.87;;
18732;SDS011;9495;51.210;2.934;2023-02-22T09:15:29;94.33;;;57.40;;
18732;SDS011;9495;51.210;2.934;2023-02-22T09:18:01;94.07;;;57.10;;
18732;SDS011;9495;51.210;2.934;2023-02-22T09:20:30;99.63;;;57.93;;
18732;SDS011;9495;51.210;2.934;2023-02-22T09:23:01;88.53;;;57.23;;
18732;SDS011;9495;51.210;2.934;2023-02-22T09:25:30;91.70;;;56.60;;
18732;SDS011;9495;51.210;2.934;2023-02-22T09:28:01;88.57;;;55.70;;
18732;SDS011;9495;51.210;2.934;2023-02-22T09:30:30;88.57;;;55.33;;
18732;SDS011;9495;51.210;2.934;2023-02-22T09:33:00;93.80;;;55.70;;
18732;SDS011;9495;51.210;2.934;2023-02-22T09:35:31;90.40;;;57.03;;
18732;SDS011;9495;51.210;2.934;2023-02-22T09:38:02;91.30;;;57.63;;
18732;SDS011;9495;51.210;2.934;2023-02-22T09:40:33;92.00;;;56.57;;
18732;SDS011;9495;51.210;2.934;2023-02-22T09:43:17;92.13;;;56.97;;
18732;SDS011;9495;51.210;2.934;2023-02-22T09:45:55;90.23;;;58.17;;
18732;SDS011;9495;51.210;2.934;2023-02-22T09:48:30;86.17;;;55.33;;
18732;SDS011;9495;51.210;2.934;2023-02-22T09:51:13;88.27;;;56.13;;
18732;SDS011;9495;51.210;2.934;2023-02-22T09:53:45;85.40;;;56.57;;
18732;SDS011;9495;51.210;2.934;2023-02-22T09:56:17;95.03;;;59.30;;
18732;SDS011;9495;51.210;2.934;2023-02-22T09:58:48;92.83;;;59.03;;
18732;SDS011;9495;51.210;2.934;2023-02-22T10:01:21;95.97;;;60.43;;
18732;SDS011;9495;51.210;2.934;2023-02-22T10:03:56;95.20;;;58.27;;
18732;SDS011;9495;51.210;2.934;2023-02-22T10:06:30;94.63;;;59.50;;
18732;SDS011;9495;51.210;2.934;2023-02-22T10:09:00;97.37;;;59.73;;
18732;SDS011;9495;51.210;2.934;2023-02-22T10:11:43;90.23;;;60.37;;
18732;SDS011;9495;51.210;2.934;2023-02-22T10:14:25;98.63;;;61.63;;
18732;SDS011;9495;51.210;2.934;2023-02-22T10:17:10;104.67;;;63.30;;
18732;SDS011;9495;51.210;2.934;2023-02-22T10:19:46;99.17;;;61.73;;
18732;SDS011;9495;51.210;2.934;2023-02-22T10:22:31;102.27;;;64.47;;
18732;SDS011;9495;51.210;2.934;2023-02-22T10:25:08;102.20;;;63.63;;
18732;SDS011;9495;51.210;2.934;2023-02-22T10:27:40;106.60;;;65.13;;
18732;SDS011;9495;51.210;2.934;2023-02-22T10:30:16;106.63;;;66.00;;
18732;SDS011;9495;51.210;2.934;2023-02-22T10:32:52;106.37;;;66.97;;
18732;SDS011;9495;51.210;2.934;2023-02-22T10:35:25;105.83;;;66.20;;
18732;SDS011;9495;51.210;2.934;2023-02-22T10:37:57;104.87;;;68.17;;
18732;SDS011;9495;51.210;2.934;2023-02-22T10:40:30;107.23;;;68.57;;
18732;SDS011;9495;51.210;2.934;2023-02-22T10:43:02;109.13;;;70.90;;
18732;SDS011;9495;51.210;2.934;2023-02-22T10:45:33;112.27;;;72.63;;
18732;SDS011;9495;51.210;2.934;2023-02-22T10:48:03;107.70;;;66.93;;
18732;SDS011;9495;51.210;2.934;2023-02-22T10:50:37;101.70;;;64.73;;
18732;SDS011;9495;51.210;2.934;2023-02-22T10:53:08;96.93;;;61.10;;
18732;SDS011;9495;51.210;2.934;2023-02-22T10:56:03;104.20;;;65.03;;
18732;SDS011;9495;51.210;2.934;2023-02-22T10:58:41;100.20;;;66.10;;
18732;SDS011;9495;51.210;2.934;2023-02-22T11:01:21;108.53;;;65.03;;
18732;SDS011;9495;51.210;2.934;2023-02-22T11:03:56;103.13;;;65.77;;
18732;SDS011;9495;51.210;2.934;2023-02-22T11:06:27;109.37;;;66.07;;
18732;SDS011;9495;51.210;2.934;2023-02-22T11:09:08;95.33;;;64.40;;
18732;SDS011;9495;51.210;2.934;2023-02-22T11:11:40;109.27;;;67.17;;
18732;SDS011;9495;51.210;2.934;2023-02-22T11:14:10;123.47;;;74.67;;
18732;SDS011;9495;51.210;2.934;2023-02-22T11:16:41;136.63;;;75.23;;
18732;SDS011;9495;51.210;2.934;2023-02-22T11:19:17;148.93;;;82.03;;
18732;SDS011;9495;51.210;2.934;2023-02-22T11:21:48;165.10;;;93.90;;
18732;SDS011;9495;51.210;2.934;2023-02-22T11:24:19;171.30;;;90.53;;
18732;SDS011;9495;51.210;2.934;2023-02-22T11:26:58;180.10;;;91.00;;
18732;SDS011;9495;51.210;2.934;2023-02-22T11:29:29;181.80;;;95.67;;
18732;SDS011;9495;51.210;2.934;2023-02-22T11:32:01;178.30;;;93.43;;
18732;SDS011;9495;51.210;2.934;2023-02-22T11:34:40;176.83;;;96.87;;
18732;SDS011;9495;51.210;2.934;2023-02-22T11:37:16;177.10;;;94.20;;
18732;SDS011;9495;51.210;2.934;2023-02-22T11:40:06;165.07;;;87.77;;
18732;SDS011;9495;51.210;2.934;2023-02-22T11:42:43;159.73;;;88.77;;
18732;SDS011;9495;51.210;2.934;2023-02-22T11:45:12;154.17;;;86.57;;
18732;SDS011;9495;51.210;2.934;2023-02-22T11:47:48;153.60;;;90.73;;
18732;SDS011;9495;51.210;2.934;2023-02-22T11:50:29;169.30;;;88.00;;
18732;SDS011;9495;51.210;2.934;2023-02-22T11:55:57;208.63;;;96.80;;
18732;SDS011;9495;51.210;2.934;2023-02-22T11:58:38;221.83;;;101.73;;
18732;SDS011;9495;51.210;2.934;2023-02-22T12:01:14;221.53;;;101.10;;
18732;SDS011;9495;51.210;2.934;2023-02-22T12:04:00;228.30;;;97.47;;
18732;SDS011;9495;51.210;2.934;2023-02-22T12:06:50;232.97;;;108.73;;
18732;SDS011;9495;51.210;2.934;2023-02-22T12:09:30;214.53;;;99.87;;
18732;SDS011;9495;51.210;2.934;2023-02-22T12:12:06;196.77;;;95.50;;
18732;SDS011;9495;51.210;2.934;2023-02-22T12:14:46;173.97;;;89.67;;
18732;SDS011;9495;51.210;2.934;2023-02-22T12:17:25;178.67;;;82.77;;
18732;SDS011;9495;51.210;2.934;2023-02-22T12:20:15;164.63;;;79.90;;
18732;SDS011;9495;51.210;2.934;2023-02-22T12:22:55;173.53;;;78.23;;
18732;SDS011;9495;51.210;2.934;2023-02-22T12:25:32;173.83;;;80.33;;
18732;SDS011;9495;51.210;2.934;2023-02-22T12:28:08;181.27;;;86.33;;
18732;SDS011;9495;51.210;2.934;2023-02-22T12:30:51;173.83;;;81.23;;
18732;SDS011;9495;51.210;2.934;2023-02-22T12:33:28;166.03;;;78.53;;
18732;SDS011;9495;51.210;2.934;2023-02-22T12:36:07;159.57;;;78.17;;
18732;SDS011;9495;51.210;2.934;2023-02-22T12:38:41;173.23;;;81.00;;
18732;SDS011;9495;51.210;2.934;2023-02-22T12:41:14;160.70;;;69.90;;
18732;SDS011;9495;51.210;2.934;2023-02-22T12:43:50;184.93;;;81.50;;
18732;SDS011;9495;51.210;2.934;2023-02-22T12:46:23;175.73;;;79.73;;
18732;SDS011;9495;51.210;2.934;2023-02-22T12:48:59;181.83;;;78.00;;
18732;SDS011;9495;51.210;2.934;2023-02-22T12:51:37;158.23;;;73.53;;
18732;SDS011;9495;51.210;2.934;2023-02-22T12:54:12;148.87;;;72.33;;
18732;SDS011;9495;51.210;2.934;2023-02-22T12:56:47;136.87;;;63.60;;
18732;SDS011;9495;51.210;2.934;2023-02-22T12:59:20;125.53;;;64.37;;
18732;SDS011;9495;51.210;2.934;2023-02-22T13:01:58;121.27;;;60.80;;
18732;SDS011;9495;51.210;2.934;2023-02-22T13:04:29;122.07;;;60.20;;
18732;SDS011;9495;51.210;2.934;2023-02-22T13:07:07;110.13;;;56.67;;
18732;SDS011;9495;51.210;2.934;2023-02-22T13:09:48;108.10;;;57.70;;
18732;SDS011;9495;51.210;2.934;2023-02-22T13:12:31;112.07;;;55.40;;
18732;SDS011;9495;51.210;2.934;2023-02-22T13:15:07;95.83;;;50.93;;
18732;SDS011;9495;51.210;2.934;2023-02-22T13:17:48;91.73;;;46.10;;
18732;SDS011;9495;51.210;2.934;2023-02-22T13:20:27;85.37;;;46.20;;
18732;SDS011;9495;51.210;2.934;2023-02-22T13:23:04;90.87;;;44.57;;
18732;SDS011;9495;51.210;2.934;2023-02-22T13:25:39;88.77;;;47.20;;
18732;SDS011;9495;51.210;2.934;2023-02-22T13:28:19;86.20;;;47.50;;
18732;SDS011;9495;51.210;2.934;2023-02-22T13:31:00;91.17;;;48.90;;
18732;SDS011;9495;51.210;2.934;2023-02-22T13:33:48;92.17;;;49.03;;
18732;SDS011;9495;51.210;2.934;2023-02-22T13:36:44;96.07;;;48.63;;
18732;SDS011;9495;51.210;2.934;2023-02-22T13:39:37;85.07;;;46.67;;
18732;SDS011;9495;51.210;2.934;2023-02-22T13:48:28;83.47;;;46.37;;
18732;SDS011;9495;51.210;2.934;2023-02-22T13:51:29;84.20;;;45.33;;
18732;SDS011;9495;51.210;2.934;2023-02-22T13:54:11;74.23;;;42.40;;
18732;SDS011;9495;51.210;2.934;2023-02-22T13:56:48;80.20;;;42.07;;
18732;SDS011;9495;51.210;2.934;2023-02-22T13:59:21;77.43;;;40.97;;
18732;SDS011;9495;51.210;2.934;2023-02-22T14:01:53;75.67;;;37.90;;
18732;SDS011;9495;51.210;2.934;2023-02-22T14:13:15;78.93;;;39.37;;
18732;SDS011;9495;51.210;2.934;2023-02-22T14:18:46;89.13;;;40.03;;
18732;SDS011;9495;51.210;2.934;2023-02-22T14:21:16;91.80;;;42.27;;
18732;SDS011;9495;51.210;2.934;2023-02-22T14:23:47;93.20;;;42.70;;
18732;SDS011;9495;51.210;2.934;2023-02-22T14:26:17;89.73;;;40.43;;
18732;SDS011;9495;51.210;2.934;2023-02-22T14:28:53;87.43;;;40.07;;
18732;SDS011;9495;51.210;2.934;2023-02-22T14:31:24;91.50;;;41.30;;
18732;SDS011;9495;51.210;2.934;2023-02-22T14:34:06;86.90;;;39.93;;
18732;SDS011;9495;51.210;2.934;2023-02-22T14:39:26;85.73;;;38.57;;
18732;SDS011;9495;51.210;2.934;2023-02-22T14:42:01;83.30;;;36.27;;
18732;SDS011;9495;51.210;2.934;2023-02-22T14:44:35;84.30;;;39.37;;
18732;SDS011;9495;51.210;2.934;2023-02-22T14:47:09;85.37;;;38.60;;
18732;SDS011;9495;51.210;2.934;2023-02-22T14:49:43;78.43;;;37.27;;
18732;SDS011;9495;51.210;2.934;2023-02-22T14:52:17;76.43;;;34.60;;
18732;SDS011;9495;51.210;2.934;2023-02-22T14:54:57;74.23;;;34.73;;
18732;SDS011;9495;51.210;2.934;2023-02-22T14:57:35;62.20;;;31.57;;
18732;SDS011;9495;51.210;2.934;2023-02-22T15:00:14;54.40;;;27.53;;
18732;SDS011;9495;51.210;2.934;2023-02-22T15:02:49;43.60;;;24.33;;
18732;SDS011;9495;51.210;2.934;2023-02-22T15:05:22;38.07;;;21.97;;
18732;SDS011;9495;51.210;2.934;2023-02-22T15:07:55;46.43;;;22.23;;
18732;SDS011;9495;51.210;2.934;2023-02-22T15:10:27;32.13;;;17.37;;
18732;SDS011;9495;51.210;2.934;2023-02-22T15:12:57;29.33;;;17.10;;
18732;SDS011;9495;51.210;2.934;2023-02-22T15:15:38;29.10;;;16.50;;
18732;SDS011;9495;51.210;2.934;2023-02-22T15:18:18;36.50;;;18.50;;
18732;SDS011;9495;51.210;2.934;2023-02-22T15:20:49;29.60;;;17.07;;
18732;SDS011;9495;51.210;2.934;2023-02-22T15:23:25;32.97;;;17.10;;
18732;SDS011;9495;51.210;2.934;2023-02-22T15:25:58;34.40;;;18.37;;